This is the latest recevied weather packets stored in our database for station/object EA6MW-10. If no packets are shown the sender has not sent any weather packets the latest 10 day(s).
| Time | Temp. | Humidity | Pressure | Rain* | Wind** | Luminosity | Snow |
|---|---|---|---|---|---|---|---|
| 1777540012 | 30.56° C | 46% | 1016.6 hPa | - | - | - | - |
| 1777539112 | 30.56° C | 46% | 1016.4 hPa | - | - | - | - |
| 1777538212 | 30° C | 46% | 1016.3 hPa | - | - | - | - |
| 1777537312 | 30° C | 46% | 1016.2 hPa | - | - | - | - |
| 1777536412 | 27.78° C | 50% | 1016.4 hPa | - | - | - | - |
| 1777535512 | 27.22° C | 54% | 1016.4 hPa | - | - | - | - |
| 1777534611 | 23.33° C | 63% | 1016.2 hPa | - | - | - | - |
| 1777533711 | 22.78° C | 65% | 1016 hPa | - | - | - | - |
| 1777532811 | 21.67° C | 70% | 1015.8 hPa | - | - | - | - |
| 1777531911 | 20° C | 74% | 1016 hPa | - | - | - | - |
| 1777531010 | 18.89° C | 76% | 1015.8 hPa | - | - | - | - |
| 1777530110 | 19.44° C | 73% | 1015.8 hPa | - | - | - | - |
| 1777529210 | 18.89° C | 76% | 1015.7 hPa | - | - | - | - |
| 1777528310 | 17.22° C | 83% | 1015.6 hPa | - | - | - | - |
| 1777527410 | 16.67° C | 84% | 1015.8 hPa | - | - | - | - |
| 1777526510 | 16.11° C | 85% | 1015.7 hPa | - | - | - | - |
| 1777525610 | 16.11° C | 86% | 1015.4 hPa | - | - | - | - |
| 1777524709 | 15.56° C | 89% | 1015.2 hPa | - | - | - | - |
| 1777523809 | 15° C | 90% | 1014.9 hPa | - | - | - | - |
| 1777522909 | 14.44° C | 91% | 1014.9 hPa | - | - | - | - |
| 1777522009 | 13.89° C | 93% | 1014.9 hPa | - | - | - | - |
| 1777521109 | 13.33° C | 94% | 1015 hPa | - | - | - | - |
| 1777520208 | 13.33° C | 94% | 1014.8 hPa | - | - | - | - |
| 1777519308 | 13.33° C | 94% | 1014.5 hPa | - | - | - | - |
| 1777518408 | 13.33° C | 93% | 1014.5 hPa | - | - | - | - |
* Rain since midnight (hover to see other rain measurements)
** Current wind speed in m/s (hover to see current wind gust speed)